sensor_id;sensor_type;location;lat;lon;timestamp;P1;durP1;ratioP1;P2;durP2;ratioP2
76123;SDS011;65173;48.066;20.976;2023-03-13T06:02:37;7.63;;;3.93;;
76123;SDS011;65173;48.066;20.976;2023-03-13T06:05:42;3.58;;;2.80;;
76123;SDS011;65173;48.066;20.976;2023-03-13T06:08:59;8.43;;;4.20;;
76123;SDS011;65173;48.066;20.976;2023-03-13T06:12:09;9.23;;;4.47;;
76123;SDS011;65173;48.066;20.976;2023-03-13T06:15:13;4.85;;;2.38;;
76123;SDS011;65173;48.066;20.976;2023-03-13T06:18:28;13.15;;;5.50;;
76123;SDS011;65173;48.066;20.976;2023-03-13T06:21:31;8.38;;;4.85;;
76123;SDS011;65173;48.066;20.976;2023-03-13T06:24:34;5.18;;;2.78;;
76123;SDS011;65173;48.066;20.976;2023-03-13T06:27:37;6.45;;;4.10;;
76123;SDS011;65173;48.066;20.976;2023-03-13T06:30:44;5.90;;;3.35;;
76123;SDS011;65173;48.066;20.976;2023-03-13T06:33:47;7.87;;;4.40;;
76123;SDS011;65173;48.066;20.976;2023-03-13T06:36:51;5.53;;;3.35;;
76123;SDS011;65173;48.066;20.976;2023-03-13T06:39:54;5.95;;;2.83;;
76123;SDS011;65173;48.066;20.976;2023-03-13T06:42:57;5.87;;;3.20;;
76123;SDS011;65173;48.066;20.976;2023-03-13T06:46:05;9.15;;;3.67;;
76123;SDS011;65173;48.066;20.976;2023-03-13T06:49:09;9.32;;;4.25;;
76123;SDS011;65173;48.066;20.976;2023-03-13T06:52:12;5.90;;;3.42;;
76123;SDS011;65173;48.066;20.976;2023-03-13T06:55:15;8.50;;;3.53;;
76123;SDS011;65173;48.066;20.976;2023-03-13T06:58:17;6.28;;;3.40;;
76123;SDS011;65173;48.066;20.976;2023-03-13T07:01:35;7.35;;;3.72;;
76123;SDS011;65173;48.066;20.976;2023-03-13T07:04:38;10.13;;;5.03;;
76123;SDS011;65173;48.066;20.976;2023-03-13T07:07:41;8.45;;;4.15;;
76123;SDS011;65173;48.066;20.976;2023-03-13T07:10:46;6.47;;;2.85;;
76123;SDS011;65173;48.066;20.976;2023-03-13T07:13:55;8.53;;;4.80;;
76123;SDS011;65173;48.066;20.976;2023-03-13T07:17:16;11.50;;;4.75;;
76123;SDS011;65173;48.066;20.976;2023-03-13T07:20:19;7.80;;;5.03;;
76123;SDS011;65173;48.066;20.976;2023-03-13T07:23:23;9.35;;;4.35;;
76123;SDS011;65173;48.066;20.976;2023-03-13T07:26:27;6.68;;;4.07;;
76123;SDS011;65173;48.066;20.976;2023-03-13T07:29:30;11.13;;;5.03;;
76123;SDS011;65173;48.066;20.976;2023-03-13T07:32:33;10.60;;;5.15;;
76123;SDS011;65173;48.066;20.976;2023-03-13T07:35:36;4.67;;;2.73;;
76123;SDS011;65173;48.066;20.976;2023-03-13T07:38:41;4.47;;;3.13;;
76123;SDS011;65173;48.066;20.976;2023-03-13T07:41:45;7.03;;;3.60;;
76123;SDS011;65173;48.066;20.976;2023-03-13T07:44:51;6.93;;;2.87;;
76123;SDS011;65173;48.066;20.976;2023-03-13T07:47:54;7.00;;;3.45;;
76123;SDS011;65173;48.066;20.976;2023-03-13T07:50:57;5.35;;;3.85;;
76123;SDS011;65173;48.066;20.976;2023-03-13T07:54:00;9.88;;;3.70;;
76123;SDS011;65173;48.066;20.976;2023-03-13T07:57:03;6.97;;;3.90;;
76123;SDS011;65173;48.066;20.976;2023-03-13T08:00:07;4.97;;;2.47;;
76123;SDS011;65173;48.066;20.976;2023-03-13T08:03:15;7.32;;;3.20;;
76123;SDS011;65173;48.066;20.976;2023-03-13T08:06:19;6.77;;;2.83;;
76123;SDS011;65173;48.066;20.976;2023-03-13T08:09:24;5.82;;;3.22;;
76123;SDS011;65173;48.066;20.976;2023-03-13T08:12:27;6.35;;;4.10;;
76123;SDS011;65173;48.066;20.976;2023-03-13T08:15:30;8.17;;;4.43;;
76123;SDS011;65173;48.066;20.976;2023-03-13T08:18:33;8.40;;;3.47;;
76123;SDS011;65173;48.066;20.976;2023-03-13T08:21:37;12.13;;;3.97;;
76123;SDS011;65173;48.066;20.976;2023-03-13T08:24:40;7.03;;;3.88;;
76123;SDS011;65173;48.066;20.976;2023-03-13T08:27:43;35.17;;;22.92;;
76123;SDS011;65173;48.066;20.976;2023-03-13T08:30:45;33.53;;;23.42;;
76123;SDS011;65173;48.066;20.976;2023-03-13T08:33:49;36.88;;;29.58;;
76123;SDS011;65173;48.066;20.976;2023-03-13T08:36:52;9.73;;;5.30;;
76123;SDS011;65173;48.066;20.976;2023-03-13T08:39:55;20.33;;;13.10;;
76123;SDS011;65173;48.066;20.976;2023-03-13T08:42:58;8.82;;;4.82;;
76123;SDS011;65173;48.066;20.976;2023-03-13T08:46:00;8.47;;;3.83;;
76123;SDS011;65173;48.066;20.976;2023-03-13T08:49:04;6.82;;;3.33;;
76123;SDS011;65173;48.066;20.976;2023-03-13T08:52:08;7.97;;;3.42;;
76123;SDS011;65173;48.066;20.976;2023-03-13T08:55:11;8.40;;;4.90;;
76123;SDS011;65173;48.066;20.976;2023-03-13T08:58:14;9.80;;;5.07;;
76123;SDS011;65173;48.066;20.976;2023-03-13T09:01:18;10.50;;;6.60;;
76123;SDS011;65173;48.066;20.976;2023-03-13T09:04:33;6.30;;;3.80;;
76123;SDS011;65173;48.066;20.976;2023-03-13T09:07:36;8.50;;;3.50;;
76123;SDS011;65173;48.066;20.976;2023-03-13T09:10:40;7.90;;;4.50;;
76123;SDS011;65173;48.066;20.976;2023-03-13T09:13:44;10.32;;;3.72;;
76123;SDS011;65173;48.066;20.976;2023-03-13T09:16:48;7.80;;;4.00;;
76123;SDS011;65173;48.066;20.976;2023-03-13T09:19:51;10.43;;;4.50;;
76123;SDS011;65173;48.066;20.976;2023-03-13T09:23:02;7.97;;;4.00;;
76123;SDS011;65173;48.066;20.976;2023-03-13T09:26:05;7.90;;;4.18;;
76123;SDS011;65173;48.066;20.976;2023-03-13T09:29:08;4.93;;;3.45;;
76123;SDS011;65173;48.066;20.976;2023-03-13T09:32:11;4.85;;;2.75;;
76123;SDS011;65173;48.066;20.976;2023-03-13T09:35:14;7.82;;;4.85;;
76123;SDS011;65173;48.066;20.976;2023-03-13T09:38:17;10.20;;;4.67;;
76123;SDS011;65173;48.066;20.976;2023-03-13T09:44:41;6.03;;;3.15;;
76123;SDS011;65173;48.066;20.976;2023-03-13T09:47:51;6.57;;;3.03;;
76123;SDS011;65173;48.066;20.976;2023-03-13T09:51:12;7.78;;;4.28;;
76123;SDS011;65173;48.066;20.976;2023-03-13T09:54:27;7.30;;;4.35;;
76123;SDS011;65173;48.066;20.976;2023-03-13T10:01:05;6.78;;;4.05;;
76123;SDS011;65173;48.066;20.976;2023-03-13T10:04:40;6.93;;;3.88;;
76123;SDS011;65173;48.066;20.976;2023-03-13T10:07:48;7.18;;;3.08;;
76123;SDS011;65173;48.066;20.976;2023-03-13T10:14:11;8.10;;;3.60;;
76123;SDS011;65173;48.066;20.976;2023-03-13T10:17:28;6.70;;;3.97;;
76123;SDS011;65173;48.066;20.976;2023-03-13T10:20:36;6.40;;;3.60;;
76123;SDS011;65173;48.066;20.976;2023-03-13T10:23:40;5.93;;;3.15;;
76123;SDS011;65173;48.066;20.976;2023-03-13T10:27:06;6.80;;;3.83;;
76123;SDS011;65173;48.066;20.976;2023-03-13T10:30:22;9.13;;;4.53;;
76123;SDS011;65173;48.066;20.976;2023-03-13T10:33:30;6.45;;;4.65;;
76123;SDS011;65173;48.066;20.976;2023-03-13T10:36:47;7.90;;;3.55;;
76123;SDS011;65173;48.066;20.976;2023-03-13T10:39:51;7.50;;;4.07;;
76123;SDS011;65173;48.066;20.976;2023-03-13T10:51:54;6.63;;;4.07;;
76123;SDS011;65173;48.066;20.976;2023-03-13T11:00:47;7.57;;;5.10;;
76123;SDS011;65173;48.066;20.976;2023-03-13T11:03:51;6.27;;;4.33;;
76123;SDS011;65173;48.066;20.976;2023-03-13T11:07:16;6.95;;;4.85;;
76123;SDS011;65173;48.066;20.976;2023-03-13T11:10:29;8.05;;;4.95;;
76123;SDS011;65173;48.066;20.976;2023-03-13T11:13:35;7.60;;;3.63;;
76123;SDS011;65173;48.066;20.976;2023-03-13T11:28:17;8.10;;;4.80;;
76123;SDS011;65173;48.066;20.976;2023-03-13T11:31:30;7.38;;;4.30;;
76123;SDS011;65173;48.066;20.976;2023-03-13T11:34:41;7.13;;;3.83;;
76123;SDS011;65173;48.066;20.976;2023-03-13T11:37:49;7.53;;;3.35;;
76123;SDS011;65173;48.066;20.976;2023-03-13T11:41:11;6.67;;;4.17;;
76123;SDS011;65173;48.066;20.976;2023-03-13T11:44:43;6.55;;;3.90;;
76123;SDS011;65173;48.066;20.976;2023-03-13T11:48:22;6.47;;;3.55;;
76123;SDS011;65173;48.066;20.976;2023-03-13T12:02:52;8.32;;;4.13;;
76123;SDS011;65173;48.066;20.976;2023-03-13T12:06:00;6.38;;;3.95;;
76123;SDS011;65173;48.066;20.976;2023-03-13T12:09:13;4.85;;;3.08;;
76123;SDS011;65173;48.066;20.976;2023-03-13T12:12:28;4.75;;;3.17;;
76123;SDS011;65173;48.066;20.976;2023-03-13T12:18:53;7.10;;;3.80;;
76123;SDS011;65173;48.066;20.976;2023-03-13T12:22:08;5.05;;;3.50;;
76123;SDS011;65173;48.066;20.976;2023-03-13T12:25:22;6.70;;;3.67;;
76123;SDS011;65173;48.066;20.976;2023-03-13T12:35:23;5.25;;;4.13;;
76123;SDS011;65173;48.066;20.976;2023-03-13T12:38:52;7.60;;;3.45;;
76123;SDS011;65173;48.066;20.976;2023-03-13T12:42:06;5.68;;;4.03;;
76123;SDS011;65173;48.066;20.976;2023-03-13T12:45:31;14.10;;;3.67;;
76123;SDS011;65173;48.066;20.976;2023-03-13T12:52:06;5.68;;;3.42;;
76123;SDS011;65173;48.066;20.976;2023-03-13T12:55:56;8.18;;;3.92;;
76123;SDS011;65173;48.066;20.976;2023-03-13T12:59:14;7.03;;;3.80;;
76123;SDS011;65173;48.066;20.976;2023-03-13T13:02:19;5.63;;;3.65;;
76123;SDS011;65173;48.066;20.976;2023-03-13T13:05:25;7.60;;;3.55;;
76123;SDS011;65173;48.066;20.976;2023-03-13T13:08:30;8.63;;;4.32;;
76123;SDS011;65173;48.066;20.976;2023-03-13T13:17:55;8.95;;;5.45;;
76123;SDS011;65173;48.066;20.976;2023-03-13T13:27:49;7.28;;;3.53;;
76123;SDS011;65173;48.066;20.976;2023-03-13T13:30:54;6.47;;;3.50;;
76123;SDS011;65173;48.066;20.976;2023-03-13T13:33:57;6.40;;;3.63;;
76123;SDS011;65173;48.066;20.976;2023-03-13T13:40:30;6.32;;;3.45;;
76123;SDS011;65173;48.066;20.976;2023-03-13T13:43:33;5.72;;;3.45;;
76123;SDS011;65173;48.066;20.976;2023-03-13T13:46:42;6.65;;;4.63;;
76123;SDS011;65173;48.066;20.976;2023-03-13T13:49:53;5.32;;;3.13;;
76123;SDS011;65173;48.066;20.976;2023-03-13T13:56:42;8.50;;;4.05;;
76123;SDS011;65173;48.066;20.976;2023-03-13T13:59:52;8.70;;;4.72;;
76123;SDS011;65173;48.066;20.976;2023-03-13T14:03:00;5.53;;;3.10;;
76123;SDS011;65173;48.066;20.976;2023-03-13T14:06:17;6.40;;;3.45;;
76123;SDS011;65173;48.066;20.976;2023-03-13T14:09:31;8.45;;;4.40;;
76123;SDS011;65173;48.066;20.976;2023-03-13T14:12:38;5.53;;;3.90;;
76123;SDS011;65173;48.066;20.976;2023-03-13T14:15:42;6.07;;;3.65;;
76123;SDS011;65173;48.066;20.976;2023-03-13T14:18:46;7.53;;;3.90;;
76123;SDS011;65173;48.066;20.976;2023-03-13T14:21:50;9.82;;;4.75;;
76123;SDS011;65173;48.066;20.976;2023-03-13T14:24:56;6.20;;;3.77;;
76123;SDS011;65173;48.066;20.976;2023-03-13T14:27:59;5.53;;;3.55;;
76123;SDS011;65173;48.066;20.976;2023-03-13T14:31:04;8.05;;;4.60;;
76123;SDS011;65173;48.066;20.976;2023-03-13T14:34:10;8.10;;;5.00;;
76123;SDS011;65173;48.066;20.976;2023-03-13T14:37:36;4.32;;;3.25;;
76123;SDS011;65173;48.066;20.976;2023-03-13T14:40:42;8.88;;;5.72;;
76123;SDS011;65173;48.066;20.976;2023-03-13T14:43:45;6.47;;;3.75;;
76123;SDS011;65173;48.066;20.976;2023-03-13T14:46:49;6.25;;;3.85;;
76123;SDS011;65173;48.066;20.976;2023-03-13T14:49:57;8.77;;;4.45;;
76123;SDS011;65173;48.066;20.976;2023-03-13T14:53:03;6.57;;;3.92;;
76123;SDS011;65173;48.066;20.976;2023-03-13T14:56:18;7.23;;;3.90;;
76123;SDS011;65173;48.066;20.976;2023-03-13T14:59:23;7.68;;;3.30;;
76123;SDS011;65173;48.066;20.976;2023-03-13T15:02:29;6.10;;;3.60;;
76123;SDS011;65173;48.066;20.976;2023-03-13T15:05:33;6.47;;;3.53;;
76123;SDS011;65173;48.066;20.976;2023-03-13T15:12:12;7.03;;;4.20;;
76123;SDS011;65173;48.066;20.976;2023-03-13T15:15:17;7.95;;;4.57;;
76123;SDS011;65173;48.066;20.976;2023-03-13T15:18:22;6.45;;;4.35;;
76123;SDS011;65173;48.066;20.976;2023-03-13T15:21:27;7.57;;;3.92;;
76123;SDS011;65173;48.066;20.976;2023-03-13T15:24:31;7.93;;;4.90;;
76123;SDS011;65173;48.066;20.976;2023-03-13T15:27:33;6.80;;;4.80;;
76123;SDS011;65173;48.066;20.976;2023-03-13T15:30:36;8.60;;;4.55;;
76123;SDS011;65173;48.066;20.976;2023-03-13T15:33:39;9.55;;;4.65;;
76123;SDS011;65173;48.066;20.976;2023-03-13T15:36:43;10.20;;;5.10;;
76123;SDS011;65173;48.066;20.976;2023-03-13T15:39:46;8.13;;;4.03;;
76123;SDS011;65173;48.066;20.976;2023-03-13T15:42:49;5.75;;;3.28;;
76123;SDS011;65173;48.066;20.976;2023-03-13T15:45:52;6.53;;;3.70;;
76123;SDS011;65173;48.066;20.976;2023-03-13T15:48:55;6.68;;;3.20;;
76123;SDS011;65173;48.066;20.976;2023-03-13T15:51:57;7.47;;;4.65;;
76123;SDS011;65173;48.066;20.976;2023-03-13T15:55:00;7.57;;;4.30;;
76123;SDS011;65173;48.066;20.976;2023-03-13T15:58:03;6.20;;;3.77;;
76123;SDS011;65173;48.066;20.976;2023-03-13T16:01:08;6.18;;;2.97;;
76123;SDS011;65173;48.066;20.976;2023-03-13T16:04:12;6.95;;;3.33;;
76123;SDS011;65173;48.066;20.976;2023-03-13T16:07:15;5.87;;;2.73;;
76123;SDS011;65173;48.066;20.976;2023-03-13T16:10:24;7.05;;;3.50;;
76123;SDS011;65173;48.066;20.976;2023-03-13T16:13:35;7.63;;;3.10;;
76123;SDS011;65173;48.066;20.976;2023-03-13T16:16:38;8.05;;;4.35;;
76123;SDS011;65173;48.066;20.976;2023-03-13T16:19:41;7.18;;;3.63;;
76123;SDS011;65173;48.066;20.976;2023-03-13T16:22:45;6.38;;;3.33;;
76123;SDS011;65173;48.066;20.976;2023-03-13T16:25:47;6.35;;;2.83;;
76123;SDS011;65173;48.066;20.976;2023-03-13T16:28:51;6.07;;;3.53;;
76123;SDS011;65173;48.066;20.976;2023-03-13T16:31:54;7.55;;;4.57;;
76123;SDS011;65173;48.066;20.976;2023-03-13T16:34:57;7.65;;;4.47;;
76123;SDS011;65173;48.066;20.976;2023-03-13T16:38:01;6.87;;;4.03;;
76123;SDS011;65173;48.066;20.976;2023-03-13T16:41:04;11.82;;;5.00;;
76123;SDS011;65173;48.066;20.976;2023-03-13T16:44:07;8.90;;;4.53;;
76123;SDS011;65173;48.066;20.976;2023-03-13T16:47:20;10.25;;;5.25;;
76123;SDS011;65173;48.066;20.976;2023-03-13T16:53:36;14.13;;;5.57;;
76123;SDS011;65173;48.066;20.976;2023-03-13T16:56:39;12.30;;;6.50;;
76123;SDS011;65173;48.066;20.976;2023-03-13T16:59:44;14.30;;;6.83;;
76123;SDS011;65173;48.066;20.976;2023-03-13T17:02:47;11.20;;;5.35;;
76123;SDS011;65173;48.066;20.976;2023-03-13T17:05:50;17.90;;;9.70;;
76123;SDS011;65173;48.066;20.976;2023-03-13T17:08:53;16.27;;;11.40;;
76123;SDS011;65173;48.066;20.976;2023-03-13T17:11:56;18.27;;;7.93;;
76123;SDS011;65173;48.066;20.976;2023-03-13T17:14:59;14.50;;;9.40;;
76123;SDS011;65173;48.066;20.976;2023-03-13T17:18:02;11.70;;;6.68;;
76123;SDS011;65173;48.066;20.976;2023-03-13T17:21:10;11.65;;;7.40;;
76123;SDS011;65173;48.066;20.976;2023-03-13T17:24:16;10.82;;;6.25;;
76123;SDS011;65173;48.066;20.976;2023-03-13T17:27:19;10.63;;;5.82;;
76123;SDS011;65173;48.066;20.976;2023-03-13T17:30:23;10.20;;;5.07;;
76123;SDS011;65173;48.066;20.976;2023-03-13T17:33:27;9.98;;;5.63;;
76123;SDS011;65173;48.066;20.976;2023-03-13T17:36:30;9.68;;;5.80;;
76123;SDS011;65173;48.066;20.976;2023-03-13T17:39:33;10.27;;;5.07;;
76123;SDS011;65173;48.066;20.976;2023-03-13T17:42:36;9.35;;;5.95;;
76123;SDS011;65173;48.066;20.976;2023-03-13T17:45:40;9.70;;;4.93;;
76123;SDS011;65173;48.066;20.976;2023-03-13T17:48:43;9.27;;;5.03;;
76123;SDS011;65173;48.066;20.976;2023-03-13T17:51:46;7.60;;;4.78;;
76123;SDS011;65173;48.066;20.976;2023-03-13T17:54:51;8.82;;;5.18;;
76123;SDS011;65173;48.066;20.976;2023-03-13T17:57:55;8.18;;;4.80;;
76123;SDS011;65173;48.066;20.976;2023-03-13T18:00:58;7.10;;;4.90;;
76123;SDS011;65173;48.066;20.976;2023-03-13T18:04:02;7.22;;;4.47;;
76123;SDS011;65173;48.066;20.976;2023-03-13T18:07:12;9.32;;;5.72;;
76123;SDS011;65173;48.066;20.976;2023-03-13T18:10:26;9.80;;;5.43;;
76123;SDS011;65173;48.066;20.976;2023-03-13T18:13:30;11.00;;;6.40;;
76123;SDS011;65173;48.066;20.976;2023-03-13T18:16:35;8.25;;;5.60;;
76123;SDS011;65173;48.066;20.976;2023-03-13T18:19:44;15.55;;;8.35;;
76123;SDS011;65173;48.066;20.976;2023-03-13T18:22:48;11.65;;;5.55;;
76123;SDS011;65173;48.066;20.976;2023-03-13T18:25:51;9.68;;;5.07;;
76123;SDS011;65173;48.066;20.976;2023-03-13T18:28:55;6.65;;;4.20;;
76123;SDS011;65173;48.066;20.976;2023-03-13T18:32:01;8.93;;;4.80;;
76123;SDS011;65173;48.066;20.976;2023-03-13T18:35:04;5.43;;;3.47;;
76123;SDS011;65173;48.066;20.976;2023-03-13T18:38:08;6.82;;;4.18;;
76123;SDS011;65173;48.066;20.976;2023-03-13T18:41:12;6.83;;;4.43;;
76123;SDS011;65173;48.066;20.976;2023-03-13T18:44:17;8.70;;;4.25;;
76123;SDS011;65173;48.066;20.976;2023-03-13T18:47:21;7.13;;;4.20;;
76123;SDS011;65173;48.066;20.976;2023-03-13T18:50:30;8.80;;;5.28;;
76123;SDS011;65173;48.066;20.976;2023-03-13T18:53:33;8.73;;;4.85;;
76123;SDS011;65173;48.066;20.976;2023-03-13T18:56:38;8.68;;;5.35;;
76123;SDS011;65173;48.066;20.976;2023-03-13T18:59:41;8.70;;;5.18;;
76123;SDS011;65173;48.066;20.976;2023-03-13T19:02:45;9.80;;;5.20;;
76123;SDS011;65173;48.066;20.976;2023-03-13T19:05:48;8.48;;;5.15;;
76123;SDS011;65173;48.066;20.976;2023-03-13T19:08:52;6.45;;;4.55;;
76123;SDS011;65173;48.066;20.976;2023-03-13T19:12:01;10.63;;;4.83;;
76123;SDS011;65173;48.066;20.976;2023-03-13T19:15:04;8.50;;;3.83;;
76123;SDS011;65173;48.066;20.976;2023-03-13T19:18:08;8.35;;;4.38;;
76123;SDS011;65173;48.066;20.976;2023-03-13T19:21:21;13.52;;;6.82;;
76123;SDS011;65173;48.066;20.976;2023-03-13T19:24:28;16.23;;;8.65;;
76123;SDS011;65173;48.066;20.976;2023-03-13T19:27:31;12.68;;;7.22;;
76123;SDS011;65173;48.066;20.976;2023-03-13T19:30:34;15.65;;;7.30;;
76123;SDS011;65173;48.066;20.976;2023-03-13T19:33:37;7.63;;;5.23;;
76123;SDS011;65173;48.066;20.976;2023-03-13T19:36:41;6.82;;;4.25;;
76123;SDS011;65173;48.066;20.976;2023-03-13T19:39:49;10.95;;;6.63;;
76123;SDS011;65173;48.066;20.976;2023-03-13T19:42:52;193.20;;;75.80;;
76123;SDS011;65173;48.066;20.976;2023-03-13T19:45:55;161.73;;;60.78;;
76123;SDS011;65173;48.066;20.976;2023-03-13T19:48:59;39.88;;;21.23;;
76123;SDS011;65173;48.066;20.976;2023-03-13T19:52:04;17.98;;;12.40;;
76123;SDS011;65173;48.066;20.976;2023-03-13T19:55:07;18.23;;;8.95;;
76123;SDS011;65173;48.066;20.976;2023-03-13T19:58:10;11.05;;;6.60;;
76123;SDS011;65173;48.066;20.976;2023-03-13T20:01:14;13.93;;;6.00;;
76123;SDS011;65173;48.066;20.976;2023-03-13T20:04:19;8.37;;;4.17;;
76123;SDS011;65173;48.066;20.976;2023-03-13T20:07:22;8.25;;;4.65;;
76123;SDS011;65173;48.066;20.976;2023-03-13T20:10:25;7.93;;;4.88;;
76123;SDS011;65173;48.066;20.976;2023-03-13T20:13:29;13.93;;;7.87;;
76123;SDS011;65173;48.066;20.976;2023-03-13T20:16:32;11.43;;;6.43;;
76123;SDS011;65173;48.066;20.976;2023-03-13T20:19:37;9.10;;;5.75;;
76123;SDS011;65173;48.066;20.976;2023-03-13T20:22:40;11.88;;;5.95;;
76123;SDS011;65173;48.066;20.976;2023-03-13T20:25:43;9.93;;;4.97;;
76123;SDS011;65173;48.066;20.976;2023-03-13T20:28:47;12.90;;;5.75;;
76123;SDS011;65173;48.066;20.976;2023-03-13T20:31:51;10.52;;;6.30;;
76123;SDS011;65173;48.066;20.976;2023-03-13T20:34:54;13.23;;;6.63;;
76123;SDS011;65173;48.066;20.976;2023-03-13T20:37:57;12.60;;;5.90;;
76123;SDS011;65173;48.066;20.976;2023-03-13T20:41:02;10.00;;;5.90;;
76123;SDS011;65173;48.066;20.976;2023-03-13T20:44:06;11.53;;;6.57;;
76123;SDS011;65173;48.066;20.976;2023-03-13T20:47:08;9.80;;;6.43;;
76123;SDS011;65173;48.066;20.976;2023-03-13T20:50:12;10.77;;;7.20;;
76123;SDS011;65173;48.066;20.976;2023-03-13T20:53:15;28.38;;;13.88;;
76123;SDS011;65173;48.066;20.976;2023-03-13T20:56:18;51.22;;;22.90;;
76123;SDS011;65173;48.066;20.976;2023-03-13T20:59:21;61.10;;;27.42;;
76123;SDS011;65173;48.066;20.976;2023-03-13T21:02:23;28.35;;;16.90;;
76123;SDS011;65173;48.066;20.976;2023-03-13T21:05:27;45.20;;;25.27;;
76123;SDS011;65173;48.066;20.976;2023-03-13T21:08:30;32.65;;;18.27;;
76123;SDS011;65173;48.066;20.976;2023-03-13T21:11:33;18.95;;;9.50;;
76123;SDS011;65173;48.066;20.976;2023-03-13T21:14:35;16.37;;;8.17;;
76123;SDS011;65173;48.066;20.976;2023-03-13T21:17:38;13.38;;;8.02;;
76123;SDS011;65173;48.066;20.976;2023-03-13T21:20:43;21.98;;;11.30;;
76123;SDS011;65173;48.066;20.976;2023-03-13T21:23:46;17.30;;;9.18;;
76123;SDS011;65173;48.066;20.976;2023-03-13T21:26:53;17.45;;;9.45;;
76123;SDS011;65173;48.066;20.976;2023-03-13T21:29:56;19.50;;;12.93;;
76123;SDS011;65173;48.066;20.976;2023-03-13T21:32:58;18.20;;;11.15;;
76123;SDS011;65173;48.066;20.976;2023-03-13T21:36:01;13.37;;;7.90;;
76123;SDS011;65173;48.066;20.976;2023-03-13T21:39:04;14.23;;;8.15;;
76123;SDS011;65173;48.066;20.976;2023-03-13T21:42:10;12.90;;;7.05;;
76123;SDS011;65173;48.066;20.976;2023-03-13T21:45:14;12.13;;;6.57;;
76123;SDS011;65173;48.066;20.976;2023-03-13T21:48:17;9.65;;;5.78;;
76123;SDS011;65173;48.066;20.976;2023-03-13T21:51:21;10.48;;;6.20;;
76123;SDS011;65173;48.066;20.976;2023-03-13T21:54:24;12.60;;;6.07;;
76123;SDS011;65173;48.066;20.976;2023-03-13T21:57:26;9.85;;;5.35;;
76123;SDS011;65173;48.066;20.976;2023-03-13T22:00:29;10.82;;;5.65;;
76123;SDS011;65173;48.066;20.976;2023-03-13T22:03:34;9.00;;;5.93;;
76123;SDS011;65173;48.066;20.976;2023-03-13T22:06:37;9.53;;;5.50;;
76123;SDS011;65173;48.066;20.976;2023-03-13T22:09:40;13.25;;;5.80;;
76123;SDS011;65173;48.066;20.976;2023-03-13T22:12:43;11.10;;;6.10;;
76123;SDS011;65173;48.066;20.976;2023-03-13T22:15:45;15.43;;;7.83;;
76123;SDS011;65173;48.066;20.976;2023-03-13T22:18:48;12.05;;;6.72;;
76123;SDS011;65173;48.066;20.976;2023-03-13T22:21:51;9.50;;;5.55;;
76123;SDS011;65173;48.066;20.976;2023-03-13T22:24:54;9.48;;;5.43;;
76123;SDS011;65173;48.066;20.976;2023-03-13T22:27:56;8.57;;;4.75;;
76123;SDS011;65173;48.066;20.976;2023-03-13T22:30:59;10.60;;;5.25;;
76123;SDS011;65173;48.066;20.976;2023-03-13T22:34:02;8.63;;;4.60;;
76123;SDS011;65173;48.066;20.976;2023-03-13T22:37:05;11.80;;;5.53;;
76123;SDS011;65173;48.066;20.976;2023-03-13T22:40:10;13.98;;;5.45;;
76123;SDS011;65173;48.066;20.976;2023-03-13T22:43:14;10.82;;;4.82;;
76123;SDS011;65173;48.066;20.976;2023-03-13T22:46:17;11.93;;;5.47;;
76123;SDS011;65173;48.066;20.976;2023-03-13T22:49:19;10.48;;;4.95;;
76123;SDS011;65173;48.066;20.976;2023-03-13T22:52:22;12.95;;;5.95;;
76123;SDS011;65173;48.066;20.976;2023-03-13T22:55:31;12.98;;;5.50;;
76123;SDS011;65173;48.066;20.976;2023-03-13T22:58:34;9.27;;;4.78;;
76123;SDS011;65173;48.066;20.976;2023-03-13T23:01:37;10.57;;;4.88;;
76123;SDS011;65173;48.066;20.976;2023-03-13T23:04:40;7.22;;;3.38;;
76123;SDS011;65173;48.066;20.976;2023-03-13T23:07:42;11.73;;;5.30;;
76123;SDS011;65173;48.066;20.976;2023-03-13T23:10:46;11.40;;;5.00;;
76123;SDS011;65173;48.066;20.976;2023-03-13T23:13:48;9.10;;;3.35;;
76123;SDS011;65173;48.066;20.976;2023-03-13T23:16:52;4.57;;;1.93;;
76123;SDS011;65173;48.066;20.976;2023-03-13T23:19:55;2.88;;;1.88;;
76123;SDS011;65173;48.066;20.976;2023-03-13T23:22:58;9.50;;;4.03;;
76123;SDS011;65173;48.066;20.976;2023-03-13T23:26:02;10.35;;;4.78;;
76123;SDS011;65173;48.066;20.976;2023-03-13T23:29:06;8.18;;;3.53;;
76123;SDS011;65173;48.066;20.976;2023-03-13T23:32:09;8.85;;;5.07;;
76123;SDS011;65173;48.066;20.976;2023-03-13T23:35:11;11.27;;;5.30;;
76123;SDS011;65173;48.066;20.976;2023-03-13T23:38:14;6.27;;;3.13;;
76123;SDS011;65173;48.066;20.976;2023-03-13T23:41:19;7.63;;;3.97;;
76123;SDS011;65173;48.066;20.976;2023-03-13T23:44:23;8.07;;;5.03;;
76123;SDS011;65173;48.066;20.976;2023-03-13T23:47:25;9.73;;;5.17;;
76123;SDS011;65173;48.066;20.976;2023-03-13T23:50:30;10.02;;;4.95;;
76123;SDS011;65173;48.066;20.976;2023-03-13T23:53:36;9.23;;;5.35;;
76123;SDS011;65173;48.066;20.976;2023-03-13T23:56:40;12.07;;;6.38;;
76123;SDS011;65173;48.066;20.976;2023-03-13T23:59:42;7.43;;;3.65;;
